sensor_id;sensor_type;location;lat;lon;timestamp;temperature;humidity
48744;DHT22;34538;48.836;9.174;2023-02-28T00:00:00;-1.30;99.90
48744;DHT22;34538;48.836;9.174;2023-02-28T00:02:35;-1.30;99.90
48744;DHT22;34538;48.836;9.174;2023-02-28T00:05:03;-1.40;99.90
48744;DHT22;34538;48.836;9.174;2023-02-28T00:07:30;-1.30;99.90
48744;DHT22;34538;48.836;9.174;2023-02-28T00:09:59;-1.30;99.90
48744;DHT22;34538;48.836;9.174;2023-02-28T00:12:26;-1.30;99.90
48744;DHT22;34538;48.836;9.174;2023-02-28T00:14:53;-1.30;99.90
48744;DHT22;34538;48.836;9.174;2023-02-28T00:17:20;-1.30;99.90
48744;DHT22;34538;48.836;9.174;2023-02-28T00:19:47;-1.40;99.90
48744;DHT22;34538;48.836;9.174;2023-02-28T00:22:14;-1.40;99.90
48744;DHT22;34538;48.836;9.174;2023-02-28T00:24:41;-1.40;99.90
48744;DHT22;34538;48.836;9.174;2023-02-28T00:27:10;-1.40;99.90
48744;DHT22;34538;48.836;9.174;2023-02-28T00:29:37;-1.40;99.90
48744;DHT22;34538;48.836;9.174;2023-02-28T00:32:05;-1.40;99.90
48744;DHT22;34538;48.836;9.174;2023-02-28T00:34:32;-1.40;99.90
48744;DHT22;34538;48.836;9.174;2023-02-28T00:37:04;-1.40;99.90
48744;DHT22;34538;48.836;9.174;2023-02-28T00:39:34;-1.40;99.90
48744;DHT22;34538;48.836;9.174;2023-02-28T00:42:01;-1.40;99.90
48744;DHT22;34538;48.836;9.174;2023-02-28T00:44:30;-1.40;99.90
48744;DHT22;34538;48.836;9.174;2023-02-28T00:46:57;-1.40;99.90
48744;DHT22;34538;48.836;9.174;2023-02-28T00:49:25;-1.40;99.90
48744;DHT22;34538;48.836;9.174;2023-02-28T00:51:53;-1.30;99.90
48744;DHT22;34538;48.836;9.174;2023-02-28T00:54:20;-1.40;99.90
48744;DHT22;34538;48.836;9.174;2023-02-28T00:56:47;-1.40;99.90
48744;DHT22;34538;48.836;9.174;2023-02-28T00:59:14;-1.40;99.90
48744;DHT22;34538;48.836;9.174;2023-02-28T01:01:44;-1.40;99.90
48744;DHT22;34538;48.836;9.174;2023-02-28T01:04:11;-1.40;99.90
48744;DHT22;34538;48.836;9.174;2023-02-28T01:06:38;-1.40;99.90
48744;DHT22;34538;48.836;9.174;2023-02-28T01:09:06;-1.40;99.90
48744;DHT22;34538;48.836;9.174;2023-02-28T01:11:34;-1.40;99.90
48744;DHT22;34538;48.836;9.174;2023-02-28T01:14:02;-1.40;99.90
48744;DHT22;34538;48.836;9.174;2023-02-28T01:16:31;-1.40;99.90
48744;DHT22;34538;48.836;9.174;2023-02-28T01:18:59;-1.50;99.90
48744;DHT22;34538;48.836;9.174;2023-02-28T01:21:26;-1.50;99.90
48744;DHT22;34538;48.836;9.174;2023-02-28T01:23:56;-1.50;99.90
48744;DHT22;34538;48.836;9.174;2023-02-28T01:26:23;-1.50;99.90
48744;DHT22;34538;48.836;9.174;2023-02-28T01:28:51;-1.50;99.90
48744;DHT22;34538;48.836;9.174;2023-02-28T01:31:19;-1.50;99.90
48744;DHT22;34538;48.836;9.174;2023-02-28T01:33:48;-1.50;99.90
48744;DHT22;34538;48.836;9.174;2023-02-28T01:36:18;-1.50;99.90
48744;DHT22;34538;48.836;9.174;2023-02-28T01:38:46;-1.50;99.90
48744;DHT22;34538;48.836;9.174;2023-02-28T01:41:17;-1.60;99.90
48744;DHT22;34538;48.836;9.174;2023-02-28T01:43:56;-1.60;99.90
48744;DHT22;34538;48.836;9.174;2023-02-28T01:46:23;-1.60;99.90
48744;DHT22;34538;48.836;9.174;2023-02-28T01:48:53;-1.60;99.90
48744;DHT22;34538;48.836;9.174;2023-02-28T01:51:26;-1.50;99.90
48744;DHT22;34538;48.836;9.174;2023-02-28T01:53:58;-1.60;99.90
48744;DHT22;34538;48.836;9.174;2023-02-28T01:56:29;-1.60;99.90
48744;DHT22;34538;48.836;9.174;2023-02-28T01:58:58;-1.60;99.90
48744;DHT22;34538;48.836;9.174;2023-02-28T02:01:27;-1.60;99.90
48744;DHT22;34538;48.836;9.174;2023-02-28T02:03:56;-1.60;99.90
48744;DHT22;34538;48.836;9.174;2023-02-28T02:06:29;-1.60;99.90
48744;DHT22;34538;48.836;9.174;2023-02-28T02:08:57;-1.60;99.90
48744;DHT22;34538;48.836;9.174;2023-02-28T02:11:24;-1.70;99.90
48744;DHT22;34538;48.836;9.174;2023-02-28T02:14:31;-1.60;99.90
48744;DHT22;34538;48.836;9.174;2023-02-28T02:17:13;-1.60;99.90
48744;DHT22;34538;48.836;9.174;2023-02-28T02:20:01;-1.70;99.90
48744;DHT22;34538;48.836;9.174;2023-02-28T02:22:45;-1.70;99.90
48744;DHT22;34538;48.836;9.174;2023-02-28T02:25:25;-1.60;99.90
48744;DHT22;34538;48.836;9.174;2023-02-28T02:31:20;-1.60;99.90
48744;DHT22;34538;48.836;9.174;2023-02-28T02:34:29;-1.60;99.90
48744;DHT22;34538;48.836;9.174;2023-02-28T02:37:09;-1.60;99.90
48744;DHT22;34538;48.836;9.174;2023-02-28T02:39:43;-1.60;99.90
48744;DHT22;34538;48.836;9.174;2023-02-28T02:42:15;-1.60;99.90
48744;DHT22;34538;48.836;9.174;2023-02-28T02:44:49;-1.50;99.90
48744;DHT22;34538;48.836;9.174;2023-02-28T02:47:21;-1.50;99.90
48744;DHT22;34538;48.836;9.174;2023-02-28T02:49:53;-1.50;99.90
48744;DHT22;34538;48.836;9.174;2023-02-28T02:52:27;-1.40;99.90
48744;DHT22;34538;48.836;9.174;2023-02-28T02:54:57;-1.50;99.90
48744;DHT22;34538;48.836;9.174;2023-02-28T02:57:29;-1.40;99.90
48744;DHT22;34538;48.836;9.174;2023-02-28T02:59:57;-1.40;99.90
48744;DHT22;34538;48.836;9.174;2023-02-28T03:02:26;-1.40;99.90
48744;DHT22;34538;48.836;9.174;2023-02-28T03:05:03;-1.30;99.90
48744;DHT22;34538;48.836;9.174;2023-02-28T03:07:31;-1.30;99.90
48744;DHT22;34538;48.836;9.174;2023-02-28T03:09:58;-1.30;99.90
48744;DHT22;34538;48.836;9.174;2023-02-28T03:12:33;-1.30;99.90
48744;DHT22;34538;48.836;9.174;2023-02-28T03:15:11;-1.20;99.90
48744;DHT22;34538;48.836;9.174;2023-02-28T03:18:01;-1.30;99.90
48744;DHT22;34538;48.836;9.174;2023-02-28T03:20:39;-1.20;99.90
48744;DHT22;34538;48.836;9.174;2023-02-28T03:23:14;-1.20;99.90
48744;DHT22;34538;48.836;9.174;2023-02-28T03:25:54;-1.20;99.90
48744;DHT22;34538;48.836;9.174;2023-02-28T03:28:31;-1.10;99.90
48744;DHT22;34538;48.836;9.174;2023-02-28T03:31:02;-1.10;99.90
48744;DHT22;34538;48.836;9.174;2023-02-28T03:33:38;-1.10;99.90
48744;DHT22;34538;48.836;9.174;2023-02-28T03:36:12;-1.10;99.90
48744;DHT22;34538;48.836;9.174;2023-02-28T03:38:45;-1.00;99.90
48744;DHT22;34538;48.836;9.174;2023-02-28T03:41:16;-1.00;99.90
48744;DHT22;34538;48.836;9.174;2023-02-28T03:43:51;-1.00;99.90
48744;DHT22;34538;48.836;9.174;2023-02-28T03:46:23;-1.00;99.90
48744;DHT22;34538;48.836;9.174;2023-02-28T03:48:54;-1.00;99.90
48744;DHT22;34538;48.836;9.174;2023-02-28T03:51:24;-1.00;99.90
48744;DHT22;34538;48.836;9.174;2023-02-28T03:53:54;-1.00;99.90
48744;DHT22;34538;48.836;9.174;2023-02-28T03:56:26;-1.00;99.90
48744;DHT22;34538;48.836;9.174;2023-02-28T03:58:57;-1.00;99.90
48744;DHT22;34538;48.836;9.174;2023-02-28T04:01:25;-1.00;99.90
48744;DHT22;34538;48.836;9.174;2023-02-28T04:03:54;-1.00;99.90
48744;DHT22;34538;48.836;9.174;2023-02-28T04:06:23;-0.90;99.90
48744;DHT22;34538;48.836;9.174;2023-02-28T04:08:50;-1.00;99.90
48744;DHT22;34538;48.836;9.174;2023-02-28T04:11:23;-0.90;99.90
48744;DHT22;34538;48.836;9.174;2023-02-28T04:13:54;-0.90;99.90
48744;DHT22;34538;48.836;9.174;2023-02-28T04:16:21;-0.90;99.90
48744;DHT22;34538;48.836;9.174;2023-02-28T04:18:48;-0.90;99.90
48744;DHT22;34538;48.836;9.174;2023-02-28T04:21:14;-0.90;99.90
48744;DHT22;34538;48.836;9.174;2023-02-28T04:23:47;-0.90;99.90
48744;DHT22;34538;48.836;9.174;2023-02-28T04:26:14;-0.90;99.90
48744;DHT22;34538;48.836;9.174;2023-02-28T04:28:41;-0.80;99.90
48744;DHT22;34538;48.836;9.174;2023-02-28T04:31:08;-0.80;99.90
48744;DHT22;34538;48.836;9.174;2023-02-28T04:33:35;-0.80;99.90
48744;DHT22;34538;48.836;9.174;2023-02-28T04:36:03;-0.80;99.90
48744;DHT22;34538;48.836;9.174;2023-02-28T04:38:33;-0.80;99.90
48744;DHT22;34538;48.836;9.174;2023-02-28T04:41:02;-0.80;99.90
48744;DHT22;34538;48.836;9.174;2023-02-28T04:43:30;-0.80;99.90
48744;DHT22;34538;48.836;9.174;2023-02-28T04:46:00;-0.80;99.90
48744;DHT22;34538;48.836;9.174;2023-02-28T04:48:29;-0.80;99.90
48744;DHT22;34538;48.836;9.174;2023-02-28T04:51:00;-0.80;99.90
48744;DHT22;34538;48.836;9.174;2023-02-28T04:53:27;-0.70;99.90
48744;DHT22;34538;48.836;9.174;2023-02-28T04:55:54;-0.70;99.90
48744;DHT22;34538;48.836;9.174;2023-02-28T04:58:23;-0.70;99.90
48744;DHT22;34538;48.836;9.174;2023-02-28T05:00:50;-0.70;99.90
48744;DHT22;34538;48.836;9.174;2023-02-28T05:03:17;-0.70;99.90
48744;DHT22;34538;48.836;9.174;2023-02-28T05:05:44;-0.70;99.90
48744;DHT22;34538;48.836;9.174;2023-02-28T05:08:10;-0.70;99.90
48744;DHT22;34538;48.836;9.174;2023-02-28T05:10:37;-0.70;99.90
48744;DHT22;34538;48.836;9.174;2023-02-28T05:13:04;-0.70;99.90
48744;DHT22;34538;48.836;9.174;2023-02-28T05:15:33;-0.70;99.90
48744;DHT22;34538;48.836;9.174;2023-02-28T05:17:59;-0.70;99.90
48744;DHT22;34538;48.836;9.174;2023-02-28T05:20:26;-0.70;99.90
48744;DHT22;34538;48.836;9.174;2023-02-28T05:22:53;-0.70;99.90
48744;DHT22;34538;48.836;9.174;2023-02-28T05:25:21;-0.70;99.90
48744;DHT22;34538;48.836;9.174;2023-02-28T05:27:48;-0.70;99.90
48744;DHT22;34538;48.836;9.174;2023-02-28T05:30:16;-0.70;99.90
48744;DHT22;34538;48.836;9.174;2023-02-28T05:32:50;-0.70;99.90
48744;DHT22;34538;48.836;9.174;2023-02-28T05:35:17;-0.70;99.90
48744;DHT22;34538;48.836;9.174;2023-02-28T05:37:44;-0.70;99.90
48744;DHT22;34538;48.836;9.174;2023-02-28T05:40:11;-0.60;99.90
48744;DHT22;34538;48.836;9.174;2023-02-28T05:42:38;-0.60;99.90
48744;DHT22;34538;48.836;9.174;2023-02-28T05:45:07;-0.60;99.90
48744;DHT22;34538;48.836;9.174;2023-02-28T05:47:34;-0.70;99.90
48744;DHT22;34538;48.836;9.174;2023-02-28T05:50:03;-0.60;99.90
48744;DHT22;34538;48.836;9.174;2023-02-28T05:52:30;-0.60;99.90
48744;DHT22;34538;48.836;9.174;2023-02-28T05:54:57;-0.60;99.90
48744;DHT22;34538;48.836;9.174;2023-02-28T05:57:24;-0.60;99.90
48744;DHT22;34538;48.836;9.174;2023-02-28T05:59:51;-0.60;99.90
48744;DHT22;34538;48.836;9.174;2023-02-28T06:02:18;-0.50;99.90
48744;DHT22;34538;48.836;9.174;2023-02-28T06:04:45;-0.60;99.90
48744;DHT22;34538;48.836;9.174;2023-02-28T06:07:13;-0.60;99.90
48744;DHT22;34538;48.836;9.174;2023-02-28T06:09:40;-0.60;99.90
48744;DHT22;34538;48.836;9.174;2023-02-28T06:12:07;-0.50;99.90
48744;DHT22;34538;48.836;9.174;2023-02-28T06:14:35;-0.50;99.90
48744;DHT22;34538;48.836;9.174;2023-02-28T06:17:03;-0.60;99.90
48744;DHT22;34538;48.836;9.174;2023-02-28T06:19:30;-0.60;99.90
48744;DHT22;34538;48.836;9.174;2023-02-28T06:21:57;-0.50;99.90
48744;DHT22;34538;48.836;9.174;2023-02-28T06:24:27;-0.50;99.90
48744;DHT22;34538;48.836;9.174;2023-02-28T06:26:54;-0.50;99.90
48744;DHT22;34538;48.836;9.174;2023-02-28T06:29:21;-0.50;99.90
48744;DHT22;34538;48.836;9.174;2023-02-28T06:31:48;-0.50;99.90
48744;DHT22;34538;48.836;9.174;2023-02-28T06:34:15;-0.50;99.90
48744;DHT22;34538;48.836;9.174;2023-02-28T06:36:45;-0.50;99.90
48744;DHT22;34538;48.836;9.174;2023-02-28T06:39:12;-0.50;99.90
48744;DHT22;34538;48.836;9.174;2023-02-28T06:41:40;-0.50;99.90
48744;DHT22;34538;48.836;9.174;2023-02-28T06:44:11;-0.50;99.90
48744;DHT22;34538;48.836;9.174;2023-02-28T06:46:39;-0.40;99.90
48744;DHT22;34538;48.836;9.174;2023-02-28T06:49:06;-0.40;99.90
48744;DHT22;34538;48.836;9.174;2023-02-28T06:51:35;-0.40;99.90
48744;DHT22;34538;48.836;9.174;2023-02-28T06:54:02;-0.40;99.90
48744;DHT22;34538;48.836;9.174;2023-02-28T06:56:29;-0.40;99.90
48744;DHT22;34538;48.836;9.174;2023-02-28T06:58:57;-0.40;99.90
48744;DHT22;34538;48.836;9.174;2023-02-28T07:01:24;-0.30;99.90
48744;DHT22;34538;48.836;9.174;2023-02-28T07:03:53;-0.40;99.90
48744;DHT22;34538;48.836;9.174;2023-02-28T07:06:20;-0.30;99.90
48744;DHT22;34538;48.836;9.174;2023-02-28T07:08:49;-0.30;99.90
48744;DHT22;34538;48.836;9.174;2023-02-28T07:11:16;-0.30;99.90
48744;DHT22;34538;48.836;9.174;2023-02-28T07:13:43;-0.30;99.90
48744;DHT22;34538;48.836;9.174;2023-02-28T07:16:11;-0.40;99.90
48744;DHT22;34538;48.836;9.174;2023-02-28T07:18:39;-0.30;99.90
48744;DHT22;34538;48.836;9.174;2023-02-28T07:21:09;-0.30;99.90
48744;DHT22;34538;48.836;9.174;2023-02-28T07:23:37;-0.30;99.90
48744;DHT22;34538;48.836;9.174;2023-02-28T07:26:05;-0.30;99.90
48744;DHT22;34538;48.836;9.174;2023-02-28T07:28:32;-0.30;99.90
48744;DHT22;34538;48.836;9.174;2023-02-28T07:31:03;-0.30;99.90
48744;DHT22;34538;48.836;9.174;2023-02-28T07:33:32;-0.20;99.90
48744;DHT22;34538;48.836;9.174;2023-02-28T07:36:04;-0.20;99.90
48744;DHT22;34538;48.836;9.174;2023-02-28T07:38:33;-0.20;99.90
48744;DHT22;34538;48.836;9.174;2023-02-28T07:41:00;-0.20;99.90
48744;DHT22;34538;48.836;9.174;2023-02-28T07:43:29;-0.20;99.90
48744;DHT22;34538;48.836;9.174;2023-02-28T07:46:01;-0.20;99.90
48744;DHT22;34538;48.836;9.174;2023-02-28T07:48:28;-0.20;99.90
48744;DHT22;34538;48.836;9.174;2023-02-28T07:50:57;-0.20;99.90
48744;DHT22;34538;48.836;9.174;2023-02-28T07:53:24;-0.20;99.90
48744;DHT22;34538;48.836;9.174;2023-02-28T07:55:51;-0.20;99.90
48744;DHT22;34538;48.836;9.174;2023-02-28T07:58:20;-0.20;99.90
48744;DHT22;34538;48.836;9.174;2023-02-28T08:00:47;-0.20;99.90
48744;DHT22;34538;48.836;9.174;2023-02-28T08:03:14;-0.10;99.90
48744;DHT22;34538;48.836;9.174;2023-02-28T08:05:41;-0.10;99.90
48744;DHT22;34538;48.836;9.174;2023-02-28T08:08:09;-0.10;99.90
48744;DHT22;34538;48.836;9.174;2023-02-28T08:10:36;-0.10;99.90
48744;DHT22;34538;48.836;9.174;2023-02-28T08:13:03;-0.10;99.90
48744;DHT22;34538;48.836;9.174;2023-02-28T08:15:30;0.00;99.90
48744;DHT22;34538;48.836;9.174;2023-02-28T08:17:57;0.00;99.90
48744;DHT22;34538;48.836;9.174;2023-02-28T08:20:25;0.10;99.90
48744;DHT22;34538;48.836;9.174;2023-02-28T08:22:52;0.00;99.90
48744;DHT22;34538;48.836;9.174;2023-02-28T08:25:21;0.00;99.90
48744;DHT22;34538;48.836;9.174;2023-02-28T08:27:47;0.10;99.90
48744;DHT22;34538;48.836;9.174;2023-02-28T08:30:16;0.10;99.90
48744;DHT22;34538;48.836;9.174;2023-02-28T08:32:43;0.10;99.90
48744;DHT22;34538;48.836;9.174;2023-02-28T08:35:10;0.10;99.90
48744;DHT22;34538;48.836;9.174;2023-02-28T08:37:37;0.20;99.90
48744;DHT22;34538;48.836;9.174;2023-02-28T08:40:05;0.20;99.90
48744;DHT22;34538;48.836;9.174;2023-02-28T08:42:33;0.30;99.90
48744;DHT22;34538;48.836;9.174;2023-02-28T08:45:00;0.20;99.90
48744;DHT22;34538;48.836;9.174;2023-02-28T08:47:27;0.30;99.90
48744;DHT22;34538;48.836;9.174;2023-02-28T08:49:54;0.30;99.90
48744;DHT22;34538;48.836;9.174;2023-02-28T08:52:21;0.30;99.90
48744;DHT22;34538;48.836;9.174;2023-02-28T08:54:48;0.40;99.90
48744;DHT22;34538;48.836;9.174;2023-02-28T08:57:14;0.40;99.90
48744;DHT22;34538;48.836;9.174;2023-02-28T08:59:43;0.50;99.90
48744;DHT22;34538;48.836;9.174;2023-02-28T09:02:12;0.50;99.90
48744;DHT22;34538;48.836;9.174;2023-02-28T09:04:40;0.50;99.90
48744;DHT22;34538;48.836;9.174;2023-02-28T09:07:07;0.60;99.90
48744;DHT22;34538;48.836;9.174;2023-02-28T09:09:34;0.60;99.90
48744;DHT22;34538;48.836;9.174;2023-02-28T09:12:01;0.60;99.90
48744;DHT22;34538;48.836;9.174;2023-02-28T09:14:28;0.60;99.90
48744;DHT22;34538;48.836;9.174;2023-02-28T09:16:58;0.70;99.90
48744;DHT22;34538;48.836;9.174;2023-02-28T09:19:24;0.70;99.90
48744;DHT22;34538;48.836;9.174;2023-02-28T09:21:51;0.80;99.90
48744;DHT22;34538;48.836;9.174;2023-02-28T09:24:18;0.80;99.90
48744;DHT22;34538;48.836;9.174;2023-02-28T09:26:46;0.90;99.90
48744;DHT22;34538;48.836;9.174;2023-02-28T09:29:12;0.90;99.90
48744;DHT22;34538;48.836;9.174;2023-02-28T09:31:40;1.00;99.90
48744;DHT22;34538;48.836;9.174;2023-02-28T09:34:08;1.00;99.90
48744;DHT22;34538;48.836;9.174;2023-02-28T09:36:35;1.10;99.90
48744;DHT22;34538;48.836;9.174;2023-02-28T09:39:03;1.10;99.90
48744;DHT22;34538;48.836;9.174;2023-02-28T09:41:38;1.20;99.90
48744;DHT22;34538;48.836;9.174;2023-02-28T09:44:16;1.20;99.90
48744;DHT22;34538;48.836;9.174;2023-02-28T09:46:46;1.30;99.90
48744;DHT22;34538;48.836;9.174;2023-02-28T09:49:19;1.50;99.90
48744;DHT22;34538;48.836;9.174;2023-02-28T09:51:51;1.50;99.90
48744;DHT22;34538;48.836;9.174;2023-02-28T09:54:21;1.60;99.90
48744;DHT22;34538;48.836;9.174;2023-02-28T09:56:50;1.70;99.90
48744;DHT22;34538;48.836;9.174;2023-02-28T09:59:41;1.80;99.90
48744;DHT22;34538;48.836;9.174;2023-02-28T10:02:29;1.80;99.90
48744;DHT22;34538;48.836;9.174;2023-02-28T10:05:09;1.90;99.90
48744;DHT22;34538;48.836;9.174;2023-02-28T10:07:50;2.00;99.90
48744;DHT22;34538;48.836;9.174;2023-02-28T10:10:24;2.10;99.90
48744;DHT22;34538;48.836;9.174;2023-02-28T10:12:54;2.10;99.90
48744;DHT22;34538;48.836;9.174;2023-02-28T10:15:24;2.10;99.90
48744;DHT22;34538;48.836;9.174;2023-02-28T10:17:54;2.10;99.90
48744;DHT22;34538;48.836;9.174;2023-02-28T10:20:24;2.10;99.90
48744;DHT22;34538;48.836;9.174;2023-02-28T10:22:58;2.10;99.90
48744;DHT22;34538;48.836;9.174;2023-02-28T10:25:34;2.20;99.90
48744;DHT22;34538;48.836;9.174;2023-02-28T10:28:09;2.30;99.90
48744;DHT22;34538;48.836;9.174;2023-02-28T10:30:39;2.40;99.90
48744;DHT22;34538;48.836;9.174;2023-02-28T10:33:19;2.40;99.90
48744;DHT22;34538;48.836;9.174;2023-02-28T10:35:48;2.50;99.90
48744;DHT22;34538;48.836;9.174;2023-02-28T10:38:18;2.60;99.90
48744;DHT22;34538;48.836;9.174;2023-02-28T10:40:45;2.70;99.90
48744;DHT22;34538;48.836;9.174;2023-02-28T10:43:20;2.70;99.90
48744;DHT22;34538;48.836;9.174;2023-02-28T10:45:57;2.80;99.90
48744;DHT22;34538;48.836;9.174;2023-02-28T10:48:32;2.80;99.90
48744;DHT22;34538;48.836;9.174;2023-02-28T10:51:01;2.80;99.90
48744;DHT22;34538;48.836;9.174;2023-02-28T10:53:32;2.90;99.90
48744;DHT22;34538;48.836;9.174;2023-02-28T10:56:01;3.00;99.90
48744;DHT22;34538;48.836;9.174;2023-02-28T10:58:31;3.10;99.90
48744;DHT22;34538;48.836;9.174;2023-02-28T11:01:13;3.10;99.90
48744;DHT22;34538;48.836;9.174;2023-02-28T11:03:40;3.20;99.90
48744;DHT22;34538;48.836;9.174;2023-02-28T11:06:15;3.20;99.90
48744;DHT22;34538;48.836;9.174;2023-02-28T11:08:51;3.20;99.90
48744;DHT22;34538;48.836;9.174;2023-02-28T11:11:20;3.20;99.90
48744;DHT22;34538;48.836;9.174;2023-02-28T11:13:51;3.10;99.90
48744;DHT22;34538;48.836;9.174;2023-02-28T11:16:19;3.10;99.90
48744;DHT22;34538;48.836;9.174;2023-02-28T11:18:49;3.10;99.90
48744;DHT22;34538;48.836;9.174;2023-02-28T11:21:22;3.10;99.90
48744;DHT22;34538;48.836;9.174;2023-02-28T11:24:00;3.10;99.90
48744;DHT22;34538;48.836;9.174;2023-02-28T11:26:42;3.10;99.90
48744;DHT22;34538;48.836;9.174;2023-02-28T11:29:18;3.10;99.90
48744;DHT22;34538;48.836;9.174;2023-02-28T11:32:02;3.00;99.90
48744;DHT22;34538;48.836;9.174;2023-02-28T11:34:30;3.00;99.90
48744;DHT22;34538;48.836;9.174;2023-02-28T11:36:59;3.00;99.90
48744;DHT22;34538;48.836;9.174;2023-02-28T11:39:27;3.00;99.90
48744;DHT22;34538;48.836;9.174;2023-02-28T11:42:10;3.00;99.90
48744;DHT22;34538;48.836;9.174;2023-02-28T11:44:53;3.00;99.90
48744;DHT22;34538;48.836;9.174;2023-02-28T11:47:31;3.00;99.90
48744;DHT22;34538;48.836;9.174;2023-02-28T11:52:56;3.00;99.90
48744;DHT22;34538;48.836;9.174;2023-02-28T11:55:28;3.10;99.90
48744;DHT22;34538;48.836;9.174;2023-02-28T12:01:13;3.20;99.90
48744;DHT22;34538;48.836;9.174;2023-02-28T12:03:53;3.30;99.90
48744;DHT22;34538;48.836;9.174;2023-02-28T12:06:25;3.50;99.90
48744;DHT22;34538;48.836;9.174;2023-02-28T12:09:18;3.50;99.90
48744;DHT22;34538;48.836;9.174;2023-02-28T12:11:51;3.60;99.80
48744;DHT22;34538;48.836;9.174;2023-02-28T12:14:30;3.70;99.90
48744;DHT22;34538;48.836;9.174;2023-02-28T12:17:10;3.90;99.80
48744;DHT22;34538;48.836;9.174;2023-02-28T12:19:44;4.00;99.50
48744;DHT22;34538;48.836;9.174;2023-02-28T12:22:22;4.10;99.40
48744;DHT22;34538;48.836;9.174;2023-02-28T12:28:16;4.20;98.50
48744;DHT22;34538;48.836;9.174;2023-02-28T12:30:50;4.20;98.80
48744;DHT22;34538;48.836;9.174;2023-02-28T12:33:23;4.20;98.80
48744;DHT22;34538;48.836;9.174;2023-02-28T12:35:55;4.20;98.90
48744;DHT22;34538;48.836;9.174;2023-02-28T12:38:24;4.20;99.50
48744;DHT22;34538;48.836;9.174;2023-02-28T12:40:58;4.20;98.40
48744;DHT22;34538;48.836;9.174;2023-02-28T12:43:33;4.20;98.40
48744;DHT22;34538;48.836;9.174;2023-02-28T12:46:07;4.20;98.60
48744;DHT22;34538;48.836;9.174;2023-02-28T12:48:40;4.30;99.00
48744;DHT22;34538;48.836;9.174;2023-02-28T12:51:08;4.30;98.70
48744;DHT22;34538;48.836;9.174;2023-02-28T12:53:52;4.40;99.00
48744;DHT22;34538;48.836;9.174;2023-02-28T12:56:27;4.50;98.70
48744;DHT22;34538;48.836;9.174;2023-02-28T12:59:02;4.60;98.50
48744;DHT22;34538;48.836;9.174;2023-02-28T13:01:50;4.60;98.50
48744;DHT22;34538;48.836;9.174;2023-02-28T13:10:41;4.90;98.50
48744;DHT22;34538;48.836;9.174;2023-02-28T13:13:14;5.00;98.30
48744;DHT22;34538;48.836;9.174;2023-02-28T13:15:57;5.10;98.10
48744;DHT22;34538;48.836;9.174;2023-02-28T13:18:30;5.10;97.90
48744;DHT22;34538;48.836;9.174;2023-02-28T13:20:57;5.10;97.80
48744;DHT22;34538;48.836;9.174;2023-02-28T13:23:59;5.10;97.90
48744;DHT22;34538;48.836;9.174;2023-02-28T13:29:56;5.20;97.80
48744;DHT22;34538;48.836;9.174;2023-02-28T13:32:34;5.20;97.70
48744;DHT22;34538;48.836;9.174;2023-02-28T13:35:36;5.10;97.80
48744;DHT22;34538;48.836;9.174;2023-02-28T13:38:25;5.20;97.60
48744;DHT22;34538;48.836;9.174;2023-02-28T13:44:00;5.40;97.40
48744;DHT22;34538;48.836;9.174;2023-02-28T13:46:28;5.40;97.50
48744;DHT22;34538;48.836;9.174;2023-02-28T13:48:56;5.50;98.00
48744;DHT22;34538;48.836;9.174;2023-02-28T13:51:46;5.60;97.50
48744;DHT22;34538;48.836;9.174;2023-02-28T13:54:27;5.60;97.20
48744;DHT22;34538;48.836;9.174;2023-02-28T13:57:06;5.60;96.80
48744;DHT22;34538;48.836;9.174;2023-02-28T13:59:45;5.60;96.60
48744;DHT22;34538;48.836;9.174;2023-02-28T14:02:43;5.60;97.50
48744;DHT22;34538;48.836;9.174;2023-02-28T14:05:14;5.60;97.50
48744;DHT22;34538;48.836;9.174;2023-02-28T14:07:46;5.70;96.90
48744;DHT22;34538;48.836;9.174;2023-02-28T14:10:26;5.60;96.80
48744;DHT22;34538;48.836;9.174;2023-02-28T14:12:58;5.60;96.60
48744;DHT22;34538;48.836;9.174;2023-02-28T14:15:43;5.60;97.30
48744;DHT22;34538;48.836;9.174;2023-02-28T14:18:18;5.70;97.30
48744;DHT22;34538;48.836;9.174;2023-02-28T14:20:48;5.70;97.40
48744;DHT22;34538;48.836;9.174;2023-02-28T14:23:33;5.80;97.00
48744;DHT22;34538;48.836;9.174;2023-02-28T14:26:05;5.80;96.50
48744;DHT22;34538;48.836;9.174;2023-02-28T14:28:53;5.80;96.60
48744;DHT22;34538;48.836;9.174;2023-02-28T14:31:25;5.80;96.80
48744;DHT22;34538;48.836;9.174;2023-02-28T14:34:05;5.80;96.80
48744;DHT22;34538;48.836;9.174;2023-02-28T14:36:41;5.80;96.90
48744;DHT22;34538;48.836;9.174;2023-02-28T14:39:14;5.80;97.00
48744;DHT22;34538;48.836;9.174;2023-02-28T14:41:45;5.80;96.00
48744;DHT22;34538;48.836;9.174;2023-02-28T14:44:17;5.70;96.10
48744;DHT22;34538;48.836;9.174;2023-02-28T14:46:45;5.70;96.70
48744;DHT22;34538;48.836;9.174;2023-02-28T14:49:17;5.80;97.10
48744;DHT22;34538;48.836;9.174;2023-02-28T14:51:44;5.80;96.80
48744;DHT22;34538;48.836;9.174;2023-02-28T14:54:16;5.80;96.70
48744;DHT22;34538;48.836;9.174;2023-02-28T14:56:49;5.80;96.30
48744;DHT22;34538;48.836;9.174;2023-02-28T14:59:28;5.80;96.50
48744;DHT22;34538;48.836;9.174;2023-02-28T15:02:19;5.80;96.40
48744;DHT22;34538;48.836;9.174;2023-02-28T15:04:56;5.80;96.40
48744;DHT22;34538;48.836;9.174;2023-02-28T15:07:23;5.70;96.50
48744;DHT22;34538;48.836;9.174;2023-02-28T15:10:10;5.70;96.40
48744;DHT22;34538;48.836;9.174;2023-02-28T15:12:37;5.70;96.50
48744;DHT22;34538;48.836;9.174;2023-02-28T15:15:06;5.70;96.90
48744;DHT22;34538;48.836;9.174;2023-02-28T15:17:43;5.70;96.90
48744;DHT22;34538;48.836;9.174;2023-02-28T15:20:13;5.70;96.70
48744;DHT22;34538;48.836;9.174;2023-02-28T15:22:40;5.70;96.90
48744;DHT22;34538;48.836;9.174;2023-02-28T15:25:10;5.70;97.10
48744;DHT22;34538;48.836;9.174;2023-02-28T15:27:44;5.60;96.90
48744;DHT22;34538;48.836;9.174;2023-02-28T15:30:16;5.60;97.10
48744;DHT22;34538;48.836;9.174;2023-02-28T15:32:45;5.60;97.10
48744;DHT22;34538;48.836;9.174;2023-02-28T15:35:29;5.60;97.30
48744;DHT22;34538;48.836;9.174;2023-02-28T15:37:57;5.60;97.30
48744;DHT22;34538;48.836;9.174;2023-02-28T15:40:28;5.50;97.80
48744;DHT22;34538;48.836;9.174;2023-02-28T15:43:02;5.50;97.40
48744;DHT22;34538;48.836;9.174;2023-02-28T15:45:36;5.50;97.50
48744;DHT22;34538;48.836;9.174;2023-02-28T15:48:15;5.50;97.50
48744;DHT22;34538;48.836;9.174;2023-02-28T15:50:42;5.50;97.80
48744;DHT22;34538;48.836;9.174;2023-02-28T15:53:13;5.50;97.40
48744;DHT22;34538;48.836;9.174;2023-02-28T15:55:43;5.40;97.60
48744;DHT22;34538;48.836;9.174;2023-02-28T15:58:12;5.40;97.70
48744;DHT22;34538;48.836;9.174;2023-02-28T16:00:39;5.30;97.60
48744;DHT22;34538;48.836;9.174;2023-02-28T16:03:24;5.30;97.40
48744;DHT22;34538;48.836;9.174;2023-02-28T16:06:09;5.30;97.80
48744;DHT22;34538;48.836;9.174;2023-02-28T16:08:36;5.30;97.60
48744;DHT22;34538;48.836;9.174;2023-02-28T16:11:04;5.30;97.70
48744;DHT22;34538;48.836;9.174;2023-02-28T16:13:31;5.30;97.70
48744;DHT22;34538;48.836;9.174;2023-02-28T16:15:58;5.20;97.50
48744;DHT22;34538;48.836;9.174;2023-02-28T16:18:27;5.20;97.40
48744;DHT22;34538;48.836;9.174;2023-02-28T16:20:53;5.20;97.40
48744;DHT22;34538;48.836;9.174;2023-02-28T16:23:20;5.20;97.70
48744;DHT22;34538;48.836;9.174;2023-02-28T16:25:47;5.10;97.80
48744;DHT22;34538;48.836;9.174;2023-02-28T16:28:20;5.10;97.60